Skip Navigation LinksHome page > Weather > Current weather Skip Navigation Links

Current Weather

San Francisco International, San Francisco

For information only: do not use for flight planning or navigation.
Latest weather
Observation time Wednesday, July 30, 2014 12:56 AM PDT
Local time Wednesday, July 30, 2014 2:02 AM PDT
Flight conditions Visual Meteorological Conditions
Winds
Wind direction West-Northwest (290°)
Wind speed 15 mph
Visibility 10 mi.
Sky condition
Ceiling unlimited
Cloud layer few clouds 300 ft.
Temperature 61°F
Dewpoint 57°F
Altimeter 29.99 in.Hg
Derived measurements
Relative humidity 87%
Density altitude 260 ft.
Sea-level pressure 29.99 in.Hg
Climate data
Temperature minimum, last 24 hours 60°F
Temperature maximum, last 24 hours 73°F
Remarks
System requires maintenance.
Automated weather observing station with precipitation discriminator.
METAR KSFO 300756Z 29013KT 10SM FEW003 16/14 A2999 RMK AO2 SLP156 T01600139 402280156 $

Settings

Location code

InnerDrive.Weather 4.0.5294.0 Release CLR 4.0.30319.34014
Copyright ©2014 Inner Drive Technology. All rights reserved. Portions Copyright ©1986-2014 David Braverman.

Find weather

Site navigation


Skip Navigation Links

Place info

Page info

PayPal - The safer, easier way to pay online!

Return home.

Copyright ©2014 Inner Drive Technology. Purveyors of fine, hand-crafted computer software. Page printed 2014-07-30T09:02:38 UTC.